createdAt,value
2022-08-03T00:00:30.032Z,100882.81
2022-08-03T00:03:04.082Z,100884.39
2022-08-03T00:05:33.046Z,100883.25
2022-08-03T00:08:01.170Z,100880.39
2022-08-03T00:10:28.871Z,100885.12
2022-08-03T00:12:56.262Z,100881.40
2022-08-03T00:15:23.813Z,100883.33
2022-08-03T00:17:54.096Z,100882.92
2022-08-03T00:20:22.167Z,100882.65
2022-08-03T00:22:50.462Z,100884.21
2022-08-03T00:25:19.093Z,100883.59
2022-08-03T00:27:47.751Z,100880.20
2022-08-03T00:30:16.841Z,100878.08
2022-08-03T00:32:45.526Z,100877.89
2022-08-03T00:35:32.580Z,100879.86
2022-08-03T00:38:00.674Z,100884.18
2022-08-03T00:40:28.181Z,100884.66
2022-08-03T00:43:05.618Z,100885.00
2022-08-03T00:45:36.995Z,100885.80
2022-08-03T00:48:07.145Z,100888.77
2022-08-03T00:50:54.695Z,100889.44
2022-08-03T00:53:22.156Z,100889.82
2022-08-03T00:55:49.530Z,100887.52
2022-08-03T00:58:16.953Z,100893.02
2022-08-03T01:00:44.351Z,100894.48
2022-08-03T01:03:11.746Z,100893.18
2022-08-03T01:05:57.850Z,100890.89
2022-08-03T01:08:31.425Z,100886.73
2022-08-03T01:11:34.684Z,100888.92
2022-08-03T01:14:26.389Z,100891.67
2022-08-03T01:17:11.667Z,100892.48
2022-08-03T01:19:48.664Z,100892.05
2022-08-03T01:22:45.183Z,100889.25
2022-08-03T01:25:56.092Z,100889.73
2022-08-03T01:28:54.415Z,100888.11
2022-08-03T01:31:28.626Z,100890.79
2022-08-03T01:34:02.304Z,100889.31
2022-08-03T01:36:37.342Z,100887.89
2022-08-03T01:39:11.040Z,100892.24
2022-08-03T01:42:00.542Z,100888.51
2022-08-03T01:44:33.506Z,100890.17
2022-08-03T01:47:02.807Z,100895.38
2022-08-03T01:49:33.398Z,100891.01
2022-08-03T01:52:05.385Z,100895.30
2022-08-03T01:54:42.955Z,100893.54
2022-08-03T01:57:10.565Z,100892.43
2022-08-03T01:59:40.066Z,100894.08
2022-08-03T02:02:15.941Z,100891.21
2022-08-03T02:05:01.185Z,100886.77
2022-08-03T02:07:31.766Z,100889.89
2022-08-03T02:10:01.911Z,100891.48
2022-08-03T02:12:32.107Z,100893.00
2022-08-03T02:15:01.152Z,100889.24
2022-08-03T02:17:38.606Z,100887.74
2022-08-03T02:20:13.288Z,100883.83
2022-08-03T02:22:42.830Z,100883.19
2022-08-03T02:25:13.061Z,100882.85
2022-08-03T02:28:01.395Z,100879.16
2022-08-03T02:30:38.720Z,100880.33
2022-08-03T02:33:12.465Z,100881.21
2022-08-03T02:35:43.082Z,100885.07
2022-08-03T02:38:12.451Z,100889.48
2022-08-03T02:40:42.362Z,100893.94
2022-08-03T02:43:19.901Z,100894.31
2022-08-03T02:45:51.056Z,100897.29
2022-08-03T02:48:23.231Z,100896.92
2022-08-03T02:50:57.963Z,100900.45
2022-08-03T02:53:28.614Z,100900.20
2022-08-03T02:55:57.852Z,100898.46
2022-08-03T02:58:26.032Z,100897.15
2022-08-03T03:00:54.877Z,100893.55
2022-08-03T03:03:24.043Z,100897.07
2022-08-03T03:05:57.490Z,100896.77
2022-08-03T03:08:28.917Z,100902.98
2022-08-03T03:11:00.033Z,100905.39
2022-08-03T03:13:30.867Z,100908.05
2022-08-03T03:16:02.263Z,100907.59
2022-08-03T03:18:32.101Z,100909.63
2022-08-03T03:21:02.430Z,100914.27
2022-08-03T03:23:31.787Z,100914.83
2022-08-03T03:26:02.450Z,100913.70
2022-08-03T03:28:31.391Z,100914.60
2022-08-03T03:31:00.412Z,100910.47
2022-08-03T03:33:28.596Z,100911.88
2022-08-03T03:35:58.361Z,100919.92
2022-08-03T03:38:26.684Z,100920.64
2022-08-03T03:40:55.224Z,100921.41
2022-08-03T03:43:23.954Z,100924.23
2022-08-03T03:45:53.308Z,100924.10
2022-08-03T03:48:21.169Z,100926.58
2022-08-03T03:50:50.366Z,100927.80
2022-08-03T03:53:18.398Z,100929.26
2022-08-03T03:55:59.562Z,100933.03
2022-08-03T03:58:33.319Z,100932.91
2022-08-03T04:01:01.580Z,100933.98
2022-08-03T04:03:30.380Z,100935.73
2022-08-03T04:06:16.418Z,100940.10
2022-08-03T04:09:03.652Z,100941.50
2022-08-03T04:11:50.383Z,100939.00
2022-08-03T04:14:29.022Z,100940.47
2022-08-03T04:17:04.071Z,100944.14
2022-08-03T04:19:46.271Z,100944.78
2022-08-03T04:22:20.053Z,100947.27
2022-08-03T04:25:19.737Z,100945.10
2022-08-03T04:28:07.982Z,100945.39
2022-08-03T04:30:47.085Z,100942.23
2022-08-03T04:33:17.305Z,100947.00
2022-08-03T04:36:02.284Z,100946.95
2022-08-03T04:38:52.370Z,100940.77
2022-08-03T04:41:24.880Z,100946.50
2022-08-03T04:43:58.395Z,100944.70
2022-08-03T04:46:38.441Z,100945.51
2022-08-03T04:49:07.447Z,100946.56
2022-08-03T04:51:38.393Z,100947.35
2022-08-03T04:54:06.919Z,100948.59
2022-08-03T04:56:34.384Z,100945.91
2022-08-03T04:59:01.862Z,100943.70
2022-08-03T05:01:29.256Z,100951.80
2022-08-03T05:03:56.654Z,100952.11
2022-08-03T05:06:25.113Z,100956.02
2022-08-03T05:08:52.827Z,100953.85
2022-08-03T05:11:21.371Z,100958.90
2022-08-03T05:13:48.621Z,100964.30
2022-08-03T05:16:15.835Z,100967.45
2022-08-03T05:18:44.633Z,100967.08
2022-08-03T05:21:16.489Z,100971.11
2022-08-03T05:23:44.331Z,100960.43
2022-08-03T05:26:11.882Z,100972.61
2022-08-03T05:28:39.657Z,100970.58
2022-08-03T05:31:19.543Z,100962.17
2022-08-03T05:33:48.442Z,100964.70
2022-08-03T05:36:15.898Z,100962.56
2022-08-03T05:38:43.253Z,100964.98
2022-08-03T05:41:21.247Z,100964.96
2022-08-03T05:43:54.187Z,100964.27
2022-08-03T05:46:23.315Z,100972.65
2022-08-03T05:48:50.900Z,100969.30
2022-08-03T05:51:18.290Z,100967.64
2022-08-03T05:53:45.665Z,100972.20
2022-08-03T05:56:15.685Z,100962.89
2022-08-03T05:58:46.299Z,100960.36
2022-08-03T06:01:15.670Z,100965.56
2022-08-03T06:03:43.540Z,100972.38
2022-08-03T06:06:11.648Z,100968.58
2022-08-03T06:08:40.691Z,100972.95
2022-08-03T06:11:09.303Z,100970.55
2022-08-03T06:13:37.358Z,100980.59
2022-08-03T06:16:05.617Z,100976.56
2022-08-03T06:18:33.291Z,100980.34
2022-08-03T06:21:15.601Z,100975.80
2022-08-03T06:23:54.829Z,100967.85
2022-08-03T06:26:28.161Z,100970.27
2022-08-03T06:28:55.900Z,100975.80
2022-08-03T06:31:33.158Z,100961.30
2022-08-03T06:34:32.575Z,100962.16
2022-08-03T06:36:52.899Z,100966.16
2022-08-03T06:39:23.615Z,100969.79
2022-08-03T06:41:53.144Z,100972.31
2022-08-03T06:44:20.567Z,100970.84
2022-08-03T06:46:47.967Z,100959.05
2022-08-03T06:49:15.653Z,100975.29
2022-08-03T06:52:03.797Z,100974.48
2022-08-03T06:54:33.205Z,100962.90
2022-08-03T06:57:01.454Z,100962.85
2022-08-03T07:00:06.136Z,100968.77
2022-08-03T07:02:20.738Z,100972.40
2022-08-03T07:04:49.417Z,100980.60
2022-08-03T07:07:42.368Z,100974.57
2022-08-03T07:10:13.903Z,100969.13
2022-08-03T07:12:55.786Z,100968.38
2022-08-03T07:15:55.858Z,100968.10
2022-08-03T07:18:12.805Z,100976.43
2022-08-03T07:20:40.476Z,100977.74
2022-08-03T07:23:08.001Z,100970.75
2022-08-03T07:25:35.452Z,100977.42
2022-08-03T07:28:04.276Z,100969.58
2022-08-03T07:30:31.640Z,100971.36
2022-08-03T07:32:59.463Z,100962.62
2022-08-03T07:35:26.868Z,100968.27
2022-08-03T07:37:55.052Z,100964.90
2022-08-03T07:40:35.760Z,100960.86
2022-08-03T07:43:03.460Z,100963.23
2022-08-03T07:45:31.610Z,100975.69
2022-08-03T07:47:59.147Z,100971.55
2022-08-03T07:50:26.894Z,100970.23
2022-08-03T07:52:55.630Z,100968.01
2022-08-03T07:55:25.790Z,100967.39
2022-08-03T07:58:22.029Z,100966.43
2022-08-03T08:00:52.523Z,100984.62
2022-08-03T08:03:21.599Z,100984.40
2022-08-03T08:05:50.282Z,100968.61
2022-08-03T08:08:17.808Z,100974.19
2022-08-03T08:10:57.876Z,100973.10
2022-08-03T08:13:26.435Z,100988.92
2022-08-03T08:15:54.001Z,100969.31
2022-08-03T08:18:21.546Z,100966.28
2022-08-03T08:20:49.207Z,100977.98
2022-08-03T08:23:42.200Z,100987.38
2022-08-03T08:26:11.664Z,100967.36
2022-08-03T08:28:39.262Z,100968.44
2022-08-03T08:31:07.396Z,100976.33
2022-08-03T08:34:03.165Z,100975.79
2022-08-03T08:36:23.717Z,100977.91
2022-08-03T08:38:51.083Z,100975.53
2022-08-03T08:41:19.023Z,100978.52
2022-08-03T08:43:46.567Z,100974.16
2022-08-03T08:46:23.286Z,100987.38
2022-08-03T08:48:53.853Z,100972.11
2022-08-03T08:51:54.684Z,100962.53
2022-08-03T08:54:18.074Z,100970.92
2022-08-03T08:56:46.189Z,100972.53
2022-08-03T08:59:14.718Z,100988.64
2022-08-03T09:01:42.297Z,100977.36
2022-08-03T09:04:10.129Z,100972.02
2022-08-03T09:06:37.523Z,100976.36
2022-08-03T09:09:07.277Z,100962.94
2022-08-03T09:11:55.696Z,100960.49
2022-08-03T09:14:36.906Z,100973.84
2022-08-03T09:17:10.182Z,100970.56
2022-08-03T09:20:07.126Z,100976.77
2022-08-03T09:22:35.897Z,100992.85
2022-08-03T09:25:24.374Z,100991.32
2022-08-03T09:27:53.386Z,100965.59
2022-08-03T09:30:33.579Z,100975.71
2022-08-03T09:33:12.139Z,100975.39
2022-08-03T09:35:54.191Z,100971.37
2022-08-03T09:38:25.647Z,100966.97
2022-08-03T09:40:59.002Z,100955.22
2022-08-03T09:43:45.450Z,100958.09
2022-08-03T09:46:13.419Z,100955.78
2022-08-03T09:48:40.923Z,100957.02
2022-08-03T09:51:14.258Z,100958.98
2022-08-03T09:54:00.130Z,100964.80
2022-08-03T09:56:50.025Z,100966.29
2022-08-03T09:59:32.406Z,100966.17
2022-08-03T10:02:01.427Z,100947.64
2022-08-03T10:04:28.965Z,100954.09
2022-08-03T10:07:09.107Z,100959.53
2022-08-03T10:09:37.856Z,100955.48
2022-08-03T10:12:13.830Z,100968.58
2022-08-03T10:15:07.943Z,100965.18
2022-08-03T10:17:55.978Z,100958.35
2022-08-03T10:20:23.855Z,100964.52
2022-08-03T10:22:52.088Z,100960.94
2022-08-03T10:25:19.856Z,100966.60
2022-08-03T10:27:51.172Z,100952.73
2022-08-03T10:30:18.810Z,100967.14
2022-08-03T10:33:51.441Z,100965.36
2022-08-03T10:36:07.163Z,100948.73
2022-08-03T10:38:47.503Z,100950.13
2022-08-03T10:41:19.561Z,100942.25
2022-08-03T10:43:50.461Z,100944.62
2022-08-03T10:46:20.951Z,100946.77
2022-08-03T10:48:51.279Z,100935.41
2022-08-03T10:51:20.482Z,100965.55
2022-08-03T10:53:55.494Z,100937.41
2022-08-03T10:56:51.106Z,100938.61
2022-08-03T11:00:05.476Z,100937.63
2022-08-03T11:03:14.019Z,100929.08
2022-08-03T11:05:48.619Z,100922.30
2022-08-03T11:08:37.031Z,100921.52
2022-08-03T11:11:16.685Z,100928.46
2022-08-03T11:14:07.766Z,100922.31
2022-08-03T11:16:49.511Z,100925.30
2022-08-03T11:19:22.091Z,100909.28
2022-08-03T11:21:52.174Z,100924.36
2022-08-03T11:24:40.528Z,100922.08
2022-08-03T11:27:22.681Z,100923.52
2022-08-03T11:30:09.854Z,100928.92
2022-08-03T11:32:37.216Z,100919.98
2022-08-03T11:35:21.189Z,100915.98
2022-08-03T11:38:03.578Z,100913.71
2022-08-03T11:40:43.891Z,100918.85
2022-08-03T11:43:31.746Z,100902.77
2022-08-03T11:46:28.176Z,100899.98
2022-08-03T11:49:09.833Z,100907.83
2022-08-03T11:51:39.818Z,100907.11
2022-08-03T11:54:07.895Z,100913.59
2022-08-03T11:56:50.497Z,100904.75
2022-08-03T11:59:21.685Z,100893.63
2022-08-03T12:01:50.587Z,100910.05
2022-08-03T12:04:18.268Z,100882.02
2022-08-03T12:07:03.073Z,100884.65
2022-08-03T12:09:30.479Z,100890.55
2022-08-03T12:12:00.182Z,100891.74
2022-08-03T12:14:49.816Z,100901.52
2022-08-03T12:17:17.862Z,100885.63
2022-08-03T12:19:45.593Z,100899.00
2022-08-03T12:22:13.282Z,100898.98
2022-08-03T12:24:42.934Z,100891.48
2022-08-03T12:27:10.301Z,100885.54
2022-08-03T12:29:37.799Z,100884.36
2022-08-03T12:32:05.351Z,100877.30
2022-08-03T12:34:47.881Z,100886.73
2022-08-03T12:37:22.670Z,100886.50
2022-08-03T12:40:05.344Z,100881.10
2022-08-03T12:42:39.554Z,100886.27
2022-08-03T12:45:20.153Z,100899.94
2022-08-03T12:47:54.178Z,100882.20
2022-08-03T12:50:40.856Z,100889.55
2022-08-03T12:53:09.813Z,100888.11
2022-08-03T12:55:56.486Z,100884.89
2022-08-03T12:58:35.302Z,100877.27
2022-08-03T13:01:09.975Z,100874.44
2022-08-03T13:03:49.979Z,100887.25
2022-08-03T13:06:25.559Z,100887.20
2022-08-03T13:09:07.799Z,100886.64
2022-08-03T13:11:57.694Z,100884.23
2022-08-03T13:14:23.618Z,100894.92
2022-08-03T13:16:51.554Z,100899.55
2022-08-03T13:19:18.859Z,100898.20
2022-08-03T13:21:53.383Z,100900.39
2022-08-03T13:24:32.754Z,100891.86
2022-08-03T13:27:00.635Z,100891.27
2022-08-03T13:29:48.152Z,100891.37
2022-08-03T13:32:15.690Z,100891.71
2022-08-03T13:34:43.191Z,100889.06
2022-08-03T13:37:11.853Z,100890.55
2022-08-03T13:39:58.323Z,100891.16
2022-08-03T13:42:32.638Z,100892.46
2022-08-03T13:45:01.232Z,100889.38
2022-08-03T13:47:28.878Z,100898.64
2022-08-03T13:50:00.895Z,100896.13
2022-08-03T13:52:33.135Z,100896.98
2022-08-03T13:55:02.847Z,100906.01
2022-08-03T13:58:03.676Z,100915.27
2022-08-03T14:00:27.480Z,100900.74
2022-08-03T14:03:12.875Z,100905.88
2022-08-03T14:05:43.617Z,100910.72
2022-08-03T14:08:12.432Z,100901.29
2022-08-03T14:10:43.472Z,100904.39
2022-08-03T14:13:17.927Z,100904.52
2022-08-03T14:15:50.183Z,100895.51
2022-08-03T14:18:28.971Z,100903.41
2022-08-03T14:21:06.720Z,100903.13
2022-08-03T14:23:37.403Z,100904.96
2022-08-03T14:26:08.999Z,100898.39
2022-08-03T14:28:36.336Z,100903.13
2022-08-03T14:31:04.638Z,100892.64
2022-08-03T14:33:36.089Z,100896.90
2022-08-03T14:36:04.679Z,100896.10
2022-08-03T14:38:32.480Z,100896.42
2022-08-03T14:40:59.901Z,100893.10
2022-08-03T14:43:33.960Z,100902.02
2022-08-03T14:46:01.801Z,100902.84
2022-08-03T14:50:29.597Z,100903.18
2022-08-03T14:51:17.321Z,100898.98
2022-08-03T14:53:46.154Z,100899.37
2022-08-03T14:56:13.631Z,100900.30
2022-08-03T14:58:41.285Z,100897.67
2022-08-03T15:02:02.195Z,100901.09
2022-08-03T15:03:56.133Z,100896.69
2022-08-03T15:06:24.117Z,100894.95
2022-08-03T15:09:21.422Z,100892.99
2022-08-03T15:11:39.275Z,100892.66
2022-08-03T15:14:09.376Z,100891.83
2022-08-03T15:16:38.370Z,100889.79
2022-08-03T15:20:00.341Z,100901.64
2022-08-03T15:21:54.050Z,100892.63
2022-08-03T15:24:21.516Z,100889.73
2022-08-03T15:26:49.114Z,100891.01
2022-08-03T15:30:09.459Z,100897.81
2022-08-03T15:32:09.010Z,100896.15
2022-08-03T15:34:37.483Z,100894.77
2022-08-03T15:37:16.481Z,100895.13
2022-08-03T15:40:00.151Z,100891.69
2022-08-03T15:42:30.095Z,100898.16
2022-08-03T15:44:57.994Z,100892.34
2022-08-03T15:47:26.234Z,100893.63
2022-08-03T15:49:53.886Z,100891.19
2022-08-03T15:52:21.704Z,100891.11
2022-08-03T15:54:49.477Z,100889.91
2022-08-03T15:57:17.109Z,100889.01
2022-08-03T15:59:45.801Z,100889.23
2022-08-03T16:02:15.105Z,100893.12
2022-08-03T16:04:43.078Z,100889.02
2022-08-03T16:07:12.854Z,100887.86
2022-08-03T16:09:43.249Z,100889.14
2022-08-03T16:12:16.333Z,100883.86
2022-08-03T16:14:52.460Z,100883.34
2022-08-03T16:17:23.231Z,100887.85
2022-08-03T16:19:54.114Z,100884.77
2022-08-03T16:22:24.747Z,100893.75
2022-08-03T16:24:54.270Z,100897.36
2022-08-03T16:27:37.144Z,100899.46
2022-08-03T16:30:16.155Z,100906.44
2022-08-03T16:32:45.502Z,100901.51
2022-08-03T16:35:19.468Z,100903.16
2022-08-03T16:37:50.623Z,100902.78
2022-08-03T16:40:25.251Z,100909.02
2022-08-03T16:42:52.855Z,100912.05
2022-08-03T16:45:20.284Z,100911.78
2022-08-03T16:47:47.985Z,100914.60
2022-08-03T16:50:29.792Z,100912.88
2022-08-03T16:53:00.866Z,100913.75
2022-08-03T16:55:48.855Z,100914.23
2022-08-03T16:58:24.292Z,100918.16
2022-08-03T17:01:20.819Z,100919.27
2022-08-03T17:04:04.574Z,100917.43
2022-08-03T17:06:45.078Z,100921.52
2022-08-03T17:09:20.553Z,100917.18
2022-08-03T17:11:52.362Z,100921.80
2022-08-03T17:14:28.350Z,100922.98
2022-08-03T17:17:02.668Z,100925.58
2022-08-03T17:19:39.033Z,100930.91
2022-08-03T17:22:21.263Z,100933.69
2022-08-03T17:24:53.265Z,100939.02
2022-08-03T17:28:48.571Z,100938.39
2022-08-03T17:30:20.181Z,100937.52
2022-08-03T17:32:56.687Z,100938.72
2022-08-03T17:35:34.344Z,100943.25
2022-08-03T17:38:09.010Z,100946.77
2022-08-03T17:40:48.208Z,100945.38
2022-08-03T17:44:14.011Z,100952.40
2022-08-03T17:46:20.946Z,100955.09
2022-08-03T17:48:51.611Z,100960.54
2022-08-03T17:52:17.377Z,100958.18
2022-08-03T17:58:02.274Z,100969.40
2022-08-03T18:00:52.644Z,100972.96
2022-08-03T18:03:57.890Z,100976.41
2022-08-03T18:06:37.723Z,100983.83
2022-08-03T18:12:29.422Z,100988.48
2022-08-03T18:15:08.325Z,100990.80
2022-08-03T18:18:01.749Z,100987.70
2022-08-03T18:20:41.643Z,100987.88
2022-08-03T18:23:24.692Z,100987.13
2022-08-03T18:25:58.217Z,100990.27
2022-08-03T18:28:29.026Z,100992.89
2022-08-03T18:31:00.015Z,100995.66
2022-08-03T18:34:18.820Z,100997.36
2022-08-03T18:36:22.137Z,101003.81
2022-08-03T18:39:04.835Z,101007.45
2022-08-03T18:41:34.983Z,101003.89
2022-08-03T18:44:09.342Z,101003.86
2022-08-03T18:47:23.705Z,101003.85
2022-08-03T18:49:53.568Z,101007.07
2022-08-03T18:52:45.859Z,101010.52
2022-08-03T18:55:37.206Z,101011.08
2022-08-03T18:58:15.699Z,101013.13
2022-08-03T19:01:03.433Z,101014.79
2022-08-03T19:03:43.013Z,101009.93
2022-08-03T19:06:25.386Z,101016.27
2022-08-03T19:09:12.844Z,101016.05
2022-08-03T19:12:12.396Z,101020.76
2022-08-03T19:14:59.956Z,101021.52
2022-08-03T19:17:35.829Z,101021.54
2022-08-03T19:20:10.120Z,101022.77
2022-08-03T19:22:39.791Z,101022.05
2022-08-03T19:25:18.457Z,101020.02
2022-08-03T19:27:50.712Z,101020.00
2022-08-03T19:30:53.375Z,101019.35
2022-08-03T19:33:26.379Z,101019.66
2022-08-03T19:36:00.469Z,101019.11
2022-08-03T19:38:29.796Z,101020.33
2022-08-03T19:41:03.741Z,101015.05
2022-08-03T19:43:53.633Z,101012.21
2022-08-03T19:46:30.533Z,101012.98
2022-08-03T19:49:15.075Z,101012.56
2022-08-03T19:52:00.549Z,101011.04
2022-08-03T19:54:45.778Z,101014.24
2022-08-03T19:57:26.918Z,101011.54
2022-08-03T19:59:56.982Z,101010.73
2022-08-03T20:02:29.830Z,101010.63
2022-08-03T20:05:00.048Z,101008.52
2022-08-03T20:07:34.862Z,101007.42
2022-08-03T20:10:07.680Z,101010.48
2022-08-03T20:12:39.588Z,101008.51
2022-08-03T20:15:08.781Z,101008.90
2022-08-03T20:17:56.040Z,101005.06
2022-08-03T20:20:37.259Z,101003.49
2022-08-03T20:23:15.500Z,101005.15
2022-08-03T20:25:58.307Z,101005.11
2022-08-03T20:28:52.928Z,101004.39
2022-08-03T20:31:25.170Z,101003.65
2022-08-03T20:34:04.980Z,101004.05
2022-08-03T20:36:32.809Z,101001.98
2022-08-03T20:39:00.363Z,101000.17
2022-08-03T20:41:28.278Z,101000.13
2022-08-03T20:44:00.463Z,100999.33
2022-08-03T20:46:32.162Z,100997.96
2022-08-03T20:49:04.886Z,100997.83
2022-08-03T20:51:49.585Z,100997.62
2022-08-03T20:54:30.533Z,100998.98
2022-08-03T20:57:03.894Z,100999.69
2022-08-03T20:59:50.241Z,100996.96
2022-08-03T21:02:30.157Z,100994.39
2022-08-03T21:05:03.596Z,100995.42
2022-08-03T21:08:06.189Z,100995.83
2022-08-03T21:10:42.096Z,100998.49
2022-08-03T21:12:55.767Z,100965.21
2022-08-03T21:12:57.104Z,100983.58
2022-08-03T21:13:29.717Z,100999.02
2022-08-03T21:16:06.493Z,101002.91
2022-08-03T21:18:50.290Z,101005.27
2022-08-03T21:21:20.971Z,101005.90
2022-08-03T21:23:54.765Z,101008.23
2022-08-03T21:26:26.137Z,101006.46
2022-08-03T21:28:56.104Z,101007.77
2022-08-03T21:31:26.565Z,101009.01
2022-08-03T21:34:02.874Z,101007.20
2022-08-03T21:36:34.472Z,101006.98
2022-08-03T21:39:05.763Z,101008.95
2022-08-03T21:41:33.713Z,101004.45
2022-08-03T21:44:01.941Z,101007.29
2022-08-03T21:46:39.900Z,101015.05
2022-08-03T21:50:06.135Z,101012.23
2022-08-03T21:52:02.527Z,101012.58
2022-08-03T21:54:40.679Z,101011.92
2022-08-03T21:57:31.272Z,101015.94
2022-08-03T22:00:14.929Z,101018.99
2022-08-03T22:02:54.543Z,101019.66
2022-08-03T22:05:28.888Z,101015.70
2022-08-03T22:08:13.118Z,101016.45
2022-08-03T22:10:44.216Z,101016.17
2022-08-03T22:13:14.500Z,101019.08
2022-08-03T22:15:42.013Z,101019.77
2022-08-03T22:18:09.483Z,101020.89
2022-08-03T22:20:37.164Z,101020.80
2022-08-03T22:23:06.880Z,101021.80
2022-08-03T22:25:38.990Z,101026.38
2022-08-03T22:28:11.701Z,101027.04
2022-08-03T22:30:41.256Z,101028.21
2022-08-03T22:33:11.976Z,101032.40
2022-08-03T22:35:47.894Z,101030.39
2022-08-03T22:38:18.107Z,101029.31
2022-08-03T22:40:49.320Z,101028.88
2022-08-03T22:43:16.679Z,101027.20
2022-08-03T22:46:09.831Z,101027.42
2022-08-03T22:48:36.635Z,101028.81
2022-08-03T22:51:10.100Z,101027.31
2022-08-03T22:53:39.059Z,101026.30
2022-08-03T22:56:06.893Z,101027.64
2022-08-03T22:58:34.193Z,101025.59
2022-08-03T23:01:09.278Z,101024.91
2022-08-03T23:03:58.869Z,101024.28
2022-08-03T23:06:42.070Z,101026.48
2022-08-03T23:09:12.020Z,101028.60
2022-08-03T23:11:45.999Z,101024.20
2022-08-03T23:14:16.705Z,101024.42
2022-08-03T23:16:45.949Z,101024.64
2022-08-03T23:19:16.530Z,101020.95
2022-08-03T23:21:52.852Z,101020.14
2022-08-03T23:24:29.690Z,101018.30
2022-08-03T23:26:58.621Z,101019.11
2022-08-03T23:29:28.902Z,101023.25
2022-08-03T23:31:57.219Z,101024.50
2022-08-03T23:34:44.291Z,101023.22
2022-08-03T23:37:15.030Z,101019.97
2022-08-03T23:39:48.551Z,101015.84
2022-08-03T23:42:20.110Z,101013.39
2022-08-03T23:44:54.018Z,101012.21
2022-08-03T23:47:21.884Z,101009.23
2022-08-03T23:49:49.586Z,101008.75
2022-08-03T23:52:38.957Z,101008.08
2022-08-03T23:55:37.367Z,101007.79
2022-08-03T23:58:49.239Z,101007.02
